sensor_id;sensor_type;location;lat;lon;timestamp;temperature;humidity
3628;DHT22;1830;49.000;12.074;2022-11-11T00:00:38;6.60;99.90
3628;DHT22;1830;49.000;12.074;2022-11-11T00:03:05;6.50;99.90
3628;DHT22;1830;49.000;12.074;2022-11-11T00:05:33;6.60;99.90
3628;DHT22;1830;49.000;12.074;2022-11-11T00:08:00;6.60;99.90
3628;DHT22;1830;49.000;12.074;2022-11-11T00:10:28;6.50;99.90
3628;DHT22;1830;49.000;12.074;2022-11-11T00:12:58;6.50;99.90
3628;DHT22;1830;49.000;12.074;2022-11-11T00:15:26;6.50;99.90
3628;DHT22;1830;49.000;12.074;2022-11-11T00:17:53;6.40;99.90
3628;DHT22;1830;49.000;12.074;2022-11-11T00:20:37;6.50;99.90
3628;DHT22;1830;49.000;12.074;2022-11-11T00:23:23;6.50;99.90
3628;DHT22;1830;49.000;12.074;2022-11-11T00:26:10;6.40;99.90
3628;DHT22;1830;49.000;12.074;2022-11-11T00:28:37;6.40;99.90
3628;DHT22;1830;49.000;12.074;2022-11-11T00:31:07;6.30;99.90
3628;DHT22;1830;49.000;12.074;2022-11-11T00:33:34;6.30;99.90
3628;DHT22;1830;49.000;12.074;2022-11-11T00:36:01;6.30;99.90
3628;DHT22;1830;49.000;12.074;2022-11-11T00:38:28;6.40;99.90
3628;DHT22;1830;49.000;12.074;2022-11-11T00:41:09;6.40;99.90
3628;DHT22;1830;49.000;12.074;2022-11-11T00:43:35;6.40;99.90
3628;DHT22;1830;49.000;12.074;2022-11-11T00:46:03;6.30;99.90
3628;DHT22;1830;49.000;12.074;2022-11-11T00:48:49;6.30;99.90
3628;DHT22;1830;49.000;12.074;2022-11-11T00:51:33;6.30;99.90
3628;DHT22;1830;49.000;12.074;2022-11-11T00:54:00;6.20;99.90
3628;DHT22;1830;49.000;12.074;2022-11-11T00:56:27;6.30;99.90
3628;DHT22;1830;49.000;12.074;2022-11-11T00:58:54;6.20;99.90
3628;DHT22;1830;49.000;12.074;2022-11-11T01:01:21;6.30;99.90
3628;DHT22;1830;49.000;12.074;2022-11-11T01:03:49;6.20;99.90
3628;DHT22;1830;49.000;12.074;2022-11-11T01:06:18;6.30;99.90
3628;DHT22;1830;49.000;12.074;2022-11-11T01:08:45;6.30;99.90
3628;DHT22;1830;49.000;12.074;2022-11-11T01:11:13;6.30;99.90
3628;DHT22;1830;49.000;12.074;2022-11-11T01:13:41;6.30;99.90
3628;DHT22;1830;49.000;12.074;2022-11-11T01:16:11;6.40;99.90
3628;DHT22;1830;49.000;12.074;2022-11-11T01:18:38;6.40;99.90
3628;DHT22;1830;49.000;12.074;2022-11-11T01:21:09;6.40;99.90
3628;DHT22;1830;49.000;12.074;2022-11-11T01:23:37;6.40;99.90
3628;DHT22;1830;49.000;12.074;2022-11-11T01:26:06;6.30;99.90
3628;DHT22;1830;49.000;12.074;2022-11-11T01:28:33;6.20;99.90
3628;DHT22;1830;49.000;12.074;2022-11-11T01:31:01;6.30;99.90
3628;DHT22;1830;49.000;12.074;2022-11-11T01:33:28;6.30;99.90
3628;DHT22;1830;49.000;12.074;2022-11-11T01:36:01;6.30;99.90
3628;DHT22;1830;49.000;12.074;2022-11-11T01:38:29;6.40;99.90
3628;DHT22;1830;49.000;12.074;2022-11-11T01:40:56;6.40;99.90
3628;DHT22;1830;49.000;12.074;2022-11-11T01:43:23;6.30;99.90
3628;DHT22;1830;49.000;12.074;2022-11-11T01:45:54;6.30;99.90
3628;DHT22;1830;49.000;12.074;2022-11-11T01:48:27;6.30;99.90
3628;DHT22;1830;49.000;12.074;2022-11-11T01:51:18;6.40;99.90
3628;DHT22;1830;49.000;12.074;2022-11-11T01:53:52;6.40;99.90
3628;DHT22;1830;49.000;12.074;2022-11-11T01:56:19;6.40;99.90
3628;DHT22;1830;49.000;12.074;2022-11-11T01:58:48;6.40;99.90
3628;DHT22;1830;49.000;12.074;2022-11-11T02:01:16;6.40;99.90
3628;DHT22;1830;49.000;12.074;2022-11-11T02:03:45;6.40;99.90
3628;DHT22;1830;49.000;12.074;2022-11-11T02:06:33;6.40;99.90
3628;DHT22;1830;49.000;12.074;2022-11-11T02:09:02;6.30;99.90
3628;DHT22;1830;49.000;12.074;2022-11-11T02:11:31;6.40;99.90
3628;DHT22;1830;49.000;12.074;2022-11-11T02:14:21;6.40;99.90
3628;DHT22;1830;49.000;12.074;2022-11-11T02:17:07;6.40;99.90
3628;DHT22;1830;49.000;12.074;2022-11-11T02:19:40;6.50;99.90
3628;DHT22;1830;49.000;12.074;2022-11-11T02:22:12;6.50;99.90
3628;DHT22;1830;49.000;12.074;2022-11-11T02:24:41;6.50;99.90
3628;DHT22;1830;49.000;12.074;2022-11-11T02:27:12;6.50;99.90
3628;DHT22;1830;49.000;12.074;2022-11-11T02:29:40;6.50;99.90
3628;DHT22;1830;49.000;12.074;2022-11-11T02:32:08;6.50;99.90
3628;DHT22;1830;49.000;12.074;2022-11-11T02:34:35;6.60;99.90
3628;DHT22;1830;49.000;12.074;2022-11-11T02:37:04;6.60;99.90
3628;DHT22;1830;49.000;12.074;2022-11-11T02:39:33;6.60;99.90
3628;DHT22;1830;49.000;12.074;2022-11-11T02:42:04;6.60;99.90
3628;DHT22;1830;49.000;12.074;2022-11-11T02:44:35;6.50;99.90
3628;DHT22;1830;49.000;12.074;2022-11-11T02:47:03;6.50;99.90
3628;DHT22;1830;49.000;12.074;2022-11-11T02:49:30;6.40;99.90
3628;DHT22;1830;49.000;12.074;2022-11-11T02:51:57;6.40;99.90
3628;DHT22;1830;49.000;12.074;2022-11-11T02:54:24;6.50;99.90
3628;DHT22;1830;49.000;12.074;2022-11-11T02:56:51;6.50;99.90
3628;DHT22;1830;49.000;12.074;2022-11-11T02:59:35;6.30;99.90
3628;DHT22;1830;49.000;12.074;2022-11-11T03:02:02;6.30;99.90
3628;DHT22;1830;49.000;12.074;2022-11-11T03:04:29;6.30;99.90
3628;DHT22;1830;49.000;12.074;2022-11-11T03:06:56;6.30;99.90
3628;DHT22;1830;49.000;12.074;2022-11-11T03:09:23;6.40;99.90
3628;DHT22;1830;49.000;12.074;2022-11-11T03:11:50;6.40;99.90
3628;DHT22;1830;49.000;12.074;2022-11-11T03:14:17;6.40;99.90
3628;DHT22;1830;49.000;12.074;2022-11-11T03:16:45;6.50;99.90
3628;DHT22;1830;49.000;12.074;2022-11-11T03:19:30;6.40;99.90
3628;DHT22;1830;49.000;12.074;2022-11-11T03:21:57;6.30;99.90
3628;DHT22;1830;49.000;12.074;2022-11-11T03:24:24;6.30;99.90
3628;DHT22;1830;49.000;12.074;2022-11-11T03:27:11;6.30;99.90
3628;DHT22;1830;49.000;12.074;2022-11-11T03:29:37;6.40;99.90
3628;DHT22;1830;49.000;12.074;2022-11-11T03:32:06;6.40;99.90
3628;DHT22;1830;49.000;12.074;2022-11-11T03:34:34;6.40;99.90
3628;DHT22;1830;49.000;12.074;2022-11-11T03:37:01;6.40;99.90
3628;DHT22;1830;49.000;12.074;2022-11-11T03:39:45;6.40;99.90
3628;DHT22;1830;49.000;12.074;2022-11-11T03:42:12;6.50;99.90
3628;DHT22;1830;49.000;12.074;2022-11-11T03:44:39;6.40;99.90
3628;DHT22;1830;49.000;12.074;2022-11-11T03:47:07;6.40;99.90
3628;DHT22;1830;49.000;12.074;2022-11-11T03:49:33;6.50;99.90
3628;DHT22;1830;49.000;12.074;2022-11-11T03:52:00;6.50;99.90
3628;DHT22;1830;49.000;12.074;2022-11-11T03:54:27;6.40;99.90
3628;DHT22;1830;49.000;12.074;2022-11-11T03:56:54;6.40;99.90
3628;DHT22;1830;49.000;12.074;2022-11-11T03:59:42;6.50;99.90
3628;DHT22;1830;49.000;12.074;2022-11-11T04:02:12;6.50;99.90
3628;DHT22;1830;49.000;12.074;2022-11-11T04:04:57;6.50;99.90
3628;DHT22;1830;49.000;12.074;2022-11-11T04:07:41;6.50;99.90
3628;DHT22;1830;49.000;12.074;2022-11-11T04:10:27;6.50;99.90
3628;DHT22;1830;49.000;12.074;2022-11-11T04:12:55;6.50;99.90
3628;DHT22;1830;49.000;12.074;2022-11-11T04:15:40;6.50;99.90
3628;DHT22;1830;49.000;12.074;2022-11-11T04:18:22;6.40;99.90
3628;DHT22;1830;49.000;12.074;2022-11-11T04:21:03;6.40;99.90
3628;DHT22;1830;49.000;12.074;2022-11-11T04:23:47;6.30;99.90
3628;DHT22;1830;49.000;12.074;2022-11-11T04:26:14;6.40;99.90
3628;DHT22;1830;49.000;12.074;2022-11-11T04:28:39;6.40;99.90
3628;DHT22;1830;49.000;12.074;2022-11-11T04:31:24;6.40;99.90
3628;DHT22;1830;49.000;12.074;2022-11-11T04:33:52;6.30;99.90
3628;DHT22;1830;49.000;12.074;2022-11-11T04:36:18;6.30;99.90
3628;DHT22;1830;49.000;12.074;2022-11-11T04:38:44;6.30;99.90
3628;DHT22;1830;49.000;12.074;2022-11-11T04:41:29;6.40;99.90
3628;DHT22;1830;49.000;12.074;2022-11-11T04:43:56;6.40;99.90
3628;DHT22;1830;49.000;12.074;2022-11-11T04:46:40;6.30;99.90
3628;DHT22;1830;49.000;12.074;2022-11-11T04:49:08;6.30;99.90
3628;DHT22;1830;49.000;12.074;2022-11-11T04:51:35;6.30;99.90
3628;DHT22;1830;49.000;12.074;2022-11-11T04:54:15;6.20;99.90
3628;DHT22;1830;49.000;12.074;2022-11-11T04:56:42;6.20;99.90
3628;DHT22;1830;49.000;12.074;2022-11-11T04:59:14;6.20;99.90
3628;DHT22;1830;49.000;12.074;2022-11-11T05:01:42;6.20;99.90
3628;DHT22;1830;49.000;12.074;2022-11-11T05:04:27;6.20;99.90
3628;DHT22;1830;49.000;12.074;2022-11-11T05:06:54;6.20;99.90
3628;DHT22;1830;49.000;12.074;2022-11-11T05:09:39;6.10;99.90
3628;DHT22;1830;49.000;12.074;2022-11-11T05:12:06;6.10;99.90
3628;DHT22;1830;49.000;12.074;2022-11-11T05:14:32;6.10;99.90
3628;DHT22;1830;49.000;12.074;2022-11-11T05:17:17;6.00;99.90
3628;DHT22;1830;49.000;12.074;2022-11-11T05:20:03;6.00;99.90
3628;DHT22;1830;49.000;12.074;2022-11-11T05:22:47;6.00;99.90
3628;DHT22;1830;49.000;12.074;2022-11-11T05:25:14;6.00;99.90
3628;DHT22;1830;49.000;12.074;2022-11-11T05:27:56;6.10;99.90
3628;DHT22;1830;49.000;12.074;2022-11-11T05:30:24;6.10;99.90
3628;DHT22;1830;49.000;12.074;2022-11-11T05:32:53;6.10;99.90
3628;DHT22;1830;49.000;12.074;2022-11-11T05:35:22;6.10;99.90
3628;DHT22;1830;49.000;12.074;2022-11-11T05:37:49;6.00;99.90
3628;DHT22;1830;49.000;12.074;2022-11-11T05:40:29;6.00;99.90
3628;DHT22;1830;49.000;12.074;2022-11-11T05:42:56;5.90;99.90
3628;DHT22;1830;49.000;12.074;2022-11-11T05:45:23;5.90;99.90
3628;DHT22;1830;49.000;12.074;2022-11-11T05:47:50;6.00;99.90
3628;DHT22;1830;49.000;12.074;2022-11-11T05:50:17;6.10;99.90
3628;DHT22;1830;49.000;12.074;2022-11-11T05:52:48;6.00;99.90
3628;DHT22;1830;49.000;12.074;2022-11-11T05:55:15;6.00;99.90
3628;DHT22;1830;49.000;12.074;2022-11-11T05:57:42;6.10;99.90
3628;DHT22;1830;49.000;12.074;2022-11-11T06:00:10;6.00;99.90
3628;DHT22;1830;49.000;12.074;2022-11-11T06:02:37;6.10;99.90
3628;DHT22;1830;49.000;12.074;2022-11-11T06:05:04;6.50;99.90
3628;DHT22;1830;49.000;12.074;2022-11-11T06:07:32;6.40;99.90
3628;DHT22;1830;49.000;12.074;2022-11-11T06:10:00;6.30;99.90
3628;DHT22;1830;49.000;12.074;2022-11-11T06:12:41;6.30;99.90
3628;DHT22;1830;49.000;12.074;2022-11-11T06:15:22;6.10;99.90
3628;DHT22;1830;49.000;12.074;2022-11-11T06:17:49;6.00;99.90
3628;DHT22;1830;49.000;12.074;2022-11-11T06:20:16;6.10;99.90
3628;DHT22;1830;49.000;12.074;2022-11-11T06:22:43;6.10;99.90
3628;DHT22;1830;49.000;12.074;2022-11-11T06:25:23;6.10;99.90
3628;DHT22;1830;49.000;12.074;2022-11-11T06:28:08;6.10;99.90
3628;DHT22;1830;49.000;12.074;2022-11-11T06:30:36;6.20;99.90
3628;DHT22;1830;49.000;12.074;2022-11-11T06:33:03;6.10;99.90
3628;DHT22;1830;49.000;12.074;2022-11-11T06:35:32;6.20;99.90
3628;DHT22;1830;49.000;12.074;2022-11-11T06:37:59;6.10;99.90
3628;DHT22;1830;49.000;12.074;2022-11-11T06:40:27;6.10;99.90
3628;DHT22;1830;49.000;12.074;2022-11-11T06:42:57;5.90;99.90
3628;DHT22;1830;49.000;12.074;2022-11-11T06:45:25;5.90;99.90
3628;DHT22;1830;49.000;12.074;2022-11-11T06:47:52;5.90;99.90
3628;DHT22;1830;49.000;12.074;2022-11-11T06:50:19;5.90;99.90
3628;DHT22;1830;49.000;12.074;2022-11-11T06:52:46;6.00;99.90
3628;DHT22;1830;49.000;12.074;2022-11-11T06:55:13;6.00;99.90
3628;DHT22;1830;49.000;12.074;2022-11-11T06:57:41;6.00;99.90
3628;DHT22;1830;49.000;12.074;2022-11-11T07:00:09;6.10;99.90
3628;DHT22;1830;49.000;12.074;2022-11-11T07:02:36;6.10;99.90
3628;DHT22;1830;49.000;12.074;2022-11-11T07:05:04;6.10;99.90
3628;DHT22;1830;49.000;12.074;2022-11-11T07:07:31;6.10;99.90
3628;DHT22;1830;49.000;12.074;2022-11-11T07:09:58;6.20;99.90
3628;DHT22;1830;49.000;12.074;2022-11-11T07:12:25;6.20;99.90
3628;DHT22;1830;49.000;12.074;2022-11-11T07:14:54;6.20;99.90
3628;DHT22;1830;49.000;12.074;2022-11-11T07:17:21;6.20;99.90
3628;DHT22;1830;49.000;12.074;2022-11-11T07:19:48;6.10;99.90
3628;DHT22;1830;49.000;12.074;2022-11-11T07:22:15;6.20;99.90
3628;DHT22;1830;49.000;12.074;2022-11-11T07:24:41;6.20;99.90
3628;DHT22;1830;49.000;12.074;2022-11-11T07:27:08;6.30;99.90
3628;DHT22;1830;49.000;12.074;2022-11-11T07:29:35;6.30;99.90
3628;DHT22;1830;49.000;12.074;2022-11-11T07:32:03;6.30;99.90
3628;DHT22;1830;49.000;12.074;2022-11-11T07:34:30;6.30;99.90
3628;DHT22;1830;49.000;12.074;2022-11-11T07:36:57;6.30;99.90
3628;DHT22;1830;49.000;12.074;2022-11-11T07:39:24;6.30;99.90
3628;DHT22;1830;49.000;12.074;2022-11-11T07:41:52;6.10;99.90
3628;DHT22;1830;49.000;12.074;2022-11-11T07:44:19;6.10;99.90
3628;DHT22;1830;49.000;12.074;2022-11-11T07:46:46;6.10;99.90
3628;DHT22;1830;49.000;12.074;2022-11-11T07:49:14;6.10;99.90
3628;DHT22;1830;49.000;12.074;2022-11-11T07:51:41;6.00;99.90
3628;DHT22;1830;49.000;12.074;2022-11-11T07:54:07;6.00;99.90
3628;DHT22;1830;49.000;12.074;2022-11-11T07:56:34;6.10;99.90
3628;DHT22;1830;49.000;12.074;2022-11-11T07:59:01;6.00;99.90
3628;DHT22;1830;49.000;12.074;2022-11-11T08:01:29;6.10;99.90
3628;DHT22;1830;49.000;12.074;2022-11-11T08:03:56;6.10;99.90
3628;DHT22;1830;49.000;12.074;2022-11-11T08:06:24;6.10;99.90
3628;DHT22;1830;49.000;12.074;2022-11-11T08:08:51;6.20;99.90
3628;DHT22;1830;49.000;12.074;2022-11-11T08:11:17;6.20;99.90
3628;DHT22;1830;49.000;12.074;2022-11-11T08:14:05;6.30;99.90
3628;DHT22;1830;49.000;12.074;2022-11-11T08:16:31;6.20;99.90
3628;DHT22;1830;49.000;12.074;2022-11-11T08:18:58;6.30;99.90
3628;DHT22;1830;49.000;12.074;2022-11-11T08:21:26;6.20;99.90
3628;DHT22;1830;49.000;12.074;2022-11-11T08:23:53;6.20;99.90
3628;DHT22;1830;49.000;12.074;2022-11-11T08:26:22;6.00;99.90
3628;DHT22;1830;49.000;12.074;2022-11-11T08:28:50;6.00;99.90
3628;DHT22;1830;49.000;12.074;2022-11-11T08:31:18;5.90;99.90
3628;DHT22;1830;49.000;12.074;2022-11-11T08:33:45;6.00;99.90
3628;DHT22;1830;49.000;12.074;2022-11-11T08:36:12;6.10;99.90
3628;DHT22;1830;49.000;12.074;2022-11-11T08:38:41;6.10;99.90
3628;DHT22;1830;49.000;12.074;2022-11-11T08:41:07;6.10;99.90
3628;DHT22;1830;49.000;12.074;2022-11-11T08:43:34;6.20;99.90
3628;DHT22;1830;49.000;12.074;2022-11-11T08:46:03;6.30;99.90
3628;DHT22;1830;49.000;12.074;2022-11-11T08:48:30;6.20;99.90
3628;DHT22;1830;49.000;12.074;2022-11-11T08:50:58;6.10;99.90
3628;DHT22;1830;49.000;12.074;2022-11-11T08:53:26;6.20;99.90
3628;DHT22;1830;49.000;12.074;2022-11-11T08:55:54;6.10;99.90
3628;DHT22;1830;49.000;12.074;2022-11-11T08:58:21;6.30;99.90
3628;DHT22;1830;49.000;12.074;2022-11-11T09:00:48;6.30;99.90
3628;DHT22;1830;49.000;12.074;2022-11-11T09:03:15;6.30;99.90
3628;DHT22;1830;49.000;12.074;2022-11-11T09:05:43;6.40;99.90
3628;DHT22;1830;49.000;12.074;2022-11-11T09:08:12;6.30;99.90
3628;DHT22;1830;49.000;12.074;2022-11-11T09:10:38;6.30;99.90
3628;DHT22;1830;49.000;12.074;2022-11-11T09:13:07;6.20;99.90
3628;DHT22;1830;49.000;12.074;2022-11-11T09:15:34;6.10;99.90
3628;DHT22;1830;49.000;12.074;2022-11-11T09:18:01;6.10;99.90
3628;DHT22;1830;49.000;12.074;2022-11-11T09:20:28;6.20;99.90
3628;DHT22;1830;49.000;12.074;2022-11-11T09:22:55;6.30;99.90
3628;DHT22;1830;49.000;12.074;2022-11-11T09:25:22;6.40;99.90
3628;DHT22;1830;49.000;12.074;2022-11-11T09:27:53;6.40;99.90
3628;DHT22;1830;49.000;12.074;2022-11-11T09:30:22;6.40;99.90
3628;DHT22;1830;49.000;12.074;2022-11-11T09:32:50;6.40;99.90
3628;DHT22;1830;49.000;12.074;2022-11-11T09:35:17;6.40;99.90
3628;DHT22;1830;49.000;12.074;2022-11-11T09:37:52;6.40;99.90
3628;DHT22;1830;49.000;12.074;2022-11-11T09:40:21;6.40;99.90
3628;DHT22;1830;49.000;12.074;2022-11-11T09:42:55;6.50;99.90
3628;DHT22;1830;49.000;12.074;2022-11-11T09:45:31;6.60;99.90
3628;DHT22;1830;49.000;12.074;2022-11-11T09:48:12;6.60;99.90
3628;DHT22;1830;49.000;12.074;2022-11-11T09:50:48;6.60;99.90
3628;DHT22;1830;49.000;12.074;2022-11-11T09:53:23;6.70;99.90
3628;DHT22;1830;49.000;12.074;2022-11-11T09:55:54;6.70;99.90
3628;DHT22;1830;49.000;12.074;2022-11-11T09:58:24;6.60;99.90
3628;DHT22;1830;49.000;12.074;2022-11-11T10:00:57;6.60;99.90
3628;DHT22;1830;49.000;12.074;2022-11-11T10:03:26;6.70;99.90
3628;DHT22;1830;49.000;12.074;2022-11-11T10:05:58;6.70;99.90
3628;DHT22;1830;49.000;12.074;2022-11-11T10:08:29;6.70;99.90
3628;DHT22;1830;49.000;12.074;2022-11-11T10:10:59;6.70;99.90
3628;DHT22;1830;49.000;12.074;2022-11-11T10:13:30;6.80;99.90
3628;DHT22;1830;49.000;12.074;2022-11-11T10:16:04;6.80;99.90
3628;DHT22;1830;49.000;12.074;2022-11-11T10:18:46;6.80;99.90
3628;DHT22;1830;49.000;12.074;2022-11-11T10:21:20;6.80;99.90
3628;DHT22;1830;49.000;12.074;2022-11-11T10:23:51;6.80;99.90
3628;DHT22;1830;49.000;12.074;2022-11-11T10:26:25;6.90;99.90
3628;DHT22;1830;49.000;12.074;2022-11-11T10:28:55;6.90;99.90
3628;DHT22;1830;49.000;12.074;2022-11-11T10:31:26;6.90;99.90
3628;DHT22;1830;49.000;12.074;2022-11-11T10:33:57;7.00;99.90
3628;DHT22;1830;49.000;12.074;2022-11-11T10:36:26;7.10;99.90
3628;DHT22;1830;49.000;12.074;2022-11-11T10:38:57;7.10;99.90
3628;DHT22;1830;49.000;12.074;2022-11-11T10:41:30;7.20;99.90
3628;DHT22;1830;49.000;12.074;2022-11-11T10:43:58;7.20;99.90
3628;DHT22;1830;49.000;12.074;2022-11-11T10:46:31;7.30;99.90
3628;DHT22;1830;49.000;12.074;2022-11-11T10:49:03;7.40;99.90
3628;DHT22;1830;49.000;12.074;2022-11-11T10:51:34;7.50;99.90
3628;DHT22;1830;49.000;12.074;2022-11-11T10:54:05;7.50;99.90
3628;DHT22;1830;49.000;12.074;2022-11-11T10:56:38;7.50;99.90
3628;DHT22;1830;49.000;12.074;2022-11-11T10:59:13;7.50;99.90
3628;DHT22;1830;49.000;12.074;2022-11-11T11:01:51;7.50;99.90
3628;DHT22;1830;49.000;12.074;2022-11-11T11:04:25;7.50;99.90
3628;DHT22;1830;49.000;12.074;2022-11-11T11:06:56;7.50;99.90
3628;DHT22;1830;49.000;12.074;2022-11-11T11:09:28;7.50;99.90
3628;DHT22;1830;49.000;12.074;2022-11-11T11:11:59;7.50;99.90
3628;DHT22;1830;49.000;12.074;2022-11-11T11:14:32;7.60;99.90
3628;DHT22;1830;49.000;12.074;2022-11-11T11:17:06;7.60;99.90
3628;DHT22;1830;49.000;12.074;2022-11-11T11:19:34;7.50;99.90
3628;DHT22;1830;49.000;12.074;2022-11-11T11:22:01;7.40;99.90
3628;DHT22;1830;49.000;12.074;2022-11-11T11:24:30;7.40;99.90
3628;DHT22;1830;49.000;12.074;2022-11-11T11:26:59;7.50;99.90
3628;DHT22;1830;49.000;12.074;2022-11-11T11:29:28;7.50;99.90
3628;DHT22;1830;49.000;12.074;2022-11-11T11:32:12;7.50;99.90
3628;DHT22;1830;49.000;12.074;2022-11-11T11:34:48;7.50;99.90
3628;DHT22;1830;49.000;12.074;2022-11-11T11:37:16;7.60;99.90
3628;DHT22;1830;49.000;12.074;2022-11-11T11:39:43;7.60;99.90
3628;DHT22;1830;49.000;12.074;2022-11-11T11:42:26;7.60;99.90
3628;DHT22;1830;49.000;12.074;2022-11-11T11:44:53;7.60;99.90
3628;DHT22;1830;49.000;12.074;2022-11-11T11:47:31;7.50;99.90
3628;DHT22;1830;49.000;12.074;2022-11-11T11:50:16;7.60;99.90
3628;DHT22;1830;49.000;12.074;2022-11-11T11:52:56;7.60;99.90
3628;DHT22;1830;49.000;12.074;2022-11-11T11:55:27;7.70;99.90
3628;DHT22;1830;49.000;12.074;2022-11-11T11:58:08;7.70;99.90
3628;DHT22;1830;49.000;12.074;2022-11-11T12:00:44;7.60;99.90
3628;DHT22;1830;49.000;12.074;2022-11-11T12:03:32;7.60;99.90
3628;DHT22;1830;49.000;12.074;2022-11-11T12:06:11;7.70;99.90
3628;DHT22;1830;49.000;12.074;2022-11-11T12:08:49;7.70;99.90
3628;DHT22;1830;49.000;12.074;2022-11-11T12:11:23;7.60;99.90
3628;DHT22;1830;49.000;12.074;2022-11-11T12:14:08;7.30;99.90
3628;DHT22;1830;49.000;12.074;2022-11-11T12:16:48;7.40;99.90
3628;DHT22;1830;49.000;12.074;2022-11-11T12:19:34;7.50;99.90
3628;DHT22;1830;49.000;12.074;2022-11-11T12:22:14;7.50;99.90
3628;DHT22;1830;49.000;12.074;2022-11-11T12:24:49;7.60;99.90
3628;DHT22;1830;49.000;12.074;2022-11-11T12:27:24;7.50;99.90
3628;DHT22;1830;49.000;12.074;2022-11-11T12:30:01;7.60;99.90
3628;DHT22;1830;49.000;12.074;2022-11-11T12:32:53;7.60;99.90
3628;DHT22;1830;49.000;12.074;2022-11-11T12:35:38;7.50;99.90
3628;DHT22;1830;49.000;12.074;2022-11-11T12:38:31;7.70;99.90
3628;DHT22;1830;49.000;12.074;2022-11-11T12:41:09;7.70;99.90
3628;DHT22;1830;49.000;12.074;2022-11-11T12:43:48;7.70;99.90
3628;DHT22;1830;49.000;12.074;2022-11-11T12:46:22;7.70;99.90
3628;DHT22;1830;49.000;12.074;2022-11-11T12:49:01;7.60;99.90
3628;DHT22;1830;49.000;12.074;2022-11-11T12:51:39;7.60;99.90
3628;DHT22;1830;49.000;12.074;2022-11-11T12:54:19;7.70;99.90
3628;DHT22;1830;49.000;12.074;2022-11-11T12:56:54;7.70;99.90
3628;DHT22;1830;49.000;12.074;2022-11-11T12:59:30;7.60;99.90
3628;DHT22;1830;49.000;12.074;2022-11-11T13:02:07;7.60;99.90
3628;DHT22;1830;49.000;12.074;2022-11-11T13:04:52;7.70;99.90
3628;DHT22;1830;49.000;12.074;2022-11-11T13:10:22;7.70;99.90
3628;DHT22;1830;49.000;12.074;2022-11-11T13:12:59;7.80;99.90
3628;DHT22;1830;49.000;12.074;2022-11-11T13:15:29;7.80;99.90
3628;DHT22;1830;49.000;12.074;2022-11-11T13:17:58;7.80;99.90
3628;DHT22;1830;49.000;12.074;2022-11-11T13:20:38;7.80;99.90
3628;DHT22;1830;49.000;12.074;2022-11-11T13:23:11;7.70;99.90
3628;DHT22;1830;49.000;12.074;2022-11-11T13:25:43;7.70;99.90
3628;DHT22;1830;49.000;12.074;2022-11-11T13:28:16;7.80;99.90
3628;DHT22;1830;49.000;12.074;2022-11-11T13:30:55;7.80;99.90
3628;DHT22;1830;49.000;12.074;2022-11-11T13:33:26;7.80;99.90
3628;DHT22;1830;49.000;12.074;2022-11-11T13:36:02;7.80;99.90
3628;DHT22;1830;49.000;12.074;2022-11-11T13:38:34;7.90;99.90
3628;DHT22;1830;49.000;12.074;2022-11-11T13:41:05;7.90;99.90
3628;DHT22;1830;49.000;12.074;2022-11-11T13:43:35;7.80;99.90
3628;DHT22;1830;49.000;12.074;2022-11-11T13:46:22;7.90;99.90
3628;DHT22;1830;49.000;12.074;2022-11-11T13:48:55;8.00;99.90
3628;DHT22;1830;49.000;12.074;2022-11-11T13:51:25;7.90;99.90
3628;DHT22;1830;49.000;12.074;2022-11-11T13:53:54;7.80;99.90
3628;DHT22;1830;49.000;12.074;2022-11-11T13:56:24;7.90;99.90
3628;DHT22;1830;49.000;12.074;2022-11-11T13:58:53;7.90;99.90
3628;DHT22;1830;49.000;12.074;2022-11-11T14:01:21;7.90;99.90
3628;DHT22;1830;49.000;12.074;2022-11-11T14:04:00;8.00;99.90
3628;DHT22;1830;49.000;12.074;2022-11-11T14:06:51;8.00;99.90
3628;DHT22;1830;49.000;12.074;2022-11-11T14:09:53;8.00;99.90
3628;DHT22;1830;49.000;12.074;2022-11-11T14:12:32;8.00;99.90
3628;DHT22;1830;49.000;12.074;2022-11-11T14:15:00;8.10;99.90
3628;DHT22;1830;49.000;12.074;2022-11-11T14:17:32;8.10;99.90
3628;DHT22;1830;49.000;12.074;2022-11-11T14:23:20;8.00;99.90
3628;DHT22;1830;49.000;12.074;2022-11-11T14:25:50;8.00;99.90
3628;DHT22;1830;49.000;12.074;2022-11-11T14:28:23;8.00;99.90
3628;DHT22;1830;49.000;12.074;2022-11-11T14:30:52;8.00;99.90
3628;DHT22;1830;49.000;12.074;2022-11-11T14:33:29;7.90;99.90
3628;DHT22;1830;49.000;12.074;2022-11-11T14:36:03;7.90;99.90
3628;DHT22;1830;49.000;12.074;2022-11-11T14:38:43;7.80;99.90
3628;DHT22;1830;49.000;12.074;2022-11-11T14:41:46;7.80;99.90
3628;DHT22;1830;49.000;12.074;2022-11-11T14:44:39;7.80;99.90
3628;DHT22;1830;49.000;12.074;2022-11-11T14:47:23;7.80;99.90
3628;DHT22;1830;49.000;12.074;2022-11-11T14:49:51;7.80;99.90
3628;DHT22;1830;49.000;12.074;2022-11-11T14:52:29;7.80;99.90
3628;DHT22;1830;49.000;12.074;2022-11-11T14:55:11;7.80;99.90
3628;DHT22;1830;49.000;12.074;2022-11-11T14:57:43;7.80;99.90
3628;DHT22;1830;49.000;12.074;2022-11-11T15:00:15;7.70;99.90
3628;DHT22;1830;49.000;12.074;2022-11-11T15:02:48;7.70;99.90
3628;DHT22;1830;49.000;12.074;2022-11-11T15:05:19;7.70;99.90
3628;DHT22;1830;49.000;12.074;2022-11-11T15:07:58;7.70;99.90
3628;DHT22;1830;49.000;12.074;2022-11-11T15:10:37;7.70;99.90
3628;DHT22;1830;49.000;12.074;2022-11-11T15:13:30;7.60;99.90
3628;DHT22;1830;49.000;12.074;2022-11-11T15:16:11;7.70;99.90
3628;DHT22;1830;49.000;12.074;2022-11-11T15:18:51;7.70;99.90
3628;DHT22;1830;49.000;12.074;2022-11-11T15:21:26;7.70;99.90
3628;DHT22;1830;49.000;12.074;2022-11-11T15:24:07;7.70;99.90
3628;DHT22;1830;49.000;12.074;2022-11-11T15:26:41;7.70;99.90
3628;DHT22;1830;49.000;12.074;2022-11-11T15:29:26;7.70;99.90
3628;DHT22;1830;49.000;12.074;2022-11-11T15:32:03;7.60;99.90
3628;DHT22;1830;49.000;12.074;2022-11-11T15:34:36;7.50;99.90
3628;DHT22;1830;49.000;12.074;2022-11-11T15:37:09;7.60;99.90
3628;DHT22;1830;49.000;12.074;2022-11-11T15:39:39;7.50;99.90
3628;DHT22;1830;49.000;12.074;2022-11-11T15:42:11;7.60;99.90
3628;DHT22;1830;49.000;12.074;2022-11-11T15:44:41;7.60;99.90
3628;DHT22;1830;49.000;12.074;2022-11-11T15:47:11;7.60;99.90
3628;DHT22;1830;49.000;12.074;2022-11-11T15:49:40;7.60;99.90
3628;DHT22;1830;49.000;12.074;2022-11-11T15:52:24;7.60;99.90
3628;DHT22;1830;49.000;12.074;2022-11-11T15:54:52;7.60;99.90
3628;DHT22;1830;49.000;12.074;2022-11-11T15:57:24;7.60;99.90
3628;DHT22;1830;49.000;12.074;2022-11-11T15:59:53;7.50;99.90
3628;DHT22;1830;49.000;12.074;2022-11-11T16:02:22;7.50;99.90
3628;DHT22;1830;49.000;12.074;2022-11-11T16:04:53;7.50;99.90
3628;DHT22;1830;49.000;12.074;2022-11-11T16:07:23;7.50;99.90
3628;DHT22;1830;49.000;12.074;2022-11-11T16:09:50;7.50;99.90
3628;DHT22;1830;49.000;12.074;2022-11-11T16:12:21;7.40;99.90
3628;DHT22;1830;49.000;12.074;2022-11-11T16:14:53;7.40;99.90
3628;DHT22;1830;49.000;12.074;2022-11-11T16:17:25;7.30;99.90
3628;DHT22;1830;49.000;12.074;2022-11-11T16:19:55;7.30;99.90
3628;DHT22;1830;49.000;12.074;2022-11-11T16:22:24;7.40;99.90
3628;DHT22;1830;49.000;12.074;2022-11-11T16:24:53;7.40;99.90
3628;DHT22;1830;49.000;12.074;2022-11-11T16:27:24;7.40;99.90
3628;DHT22;1830;49.000;12.074;2022-11-11T16:29:52;7.50;99.90
3628;DHT22;1830;49.000;12.074;2022-11-11T16:32:37;7.50;99.90
3628;DHT22;1830;49.000;12.074;2022-11-11T16:35:22;7.40;99.90
3628;DHT22;1830;49.000;12.074;2022-11-11T16:37:51;7.40;99.90
3628;DHT22;1830;49.000;12.074;2022-11-11T16:40:35;7.40;99.90